Time;durP1;ratioP1;P1;durP2;ratioP2;P2;SDS_P1;SDS_P2;PMS_P1;PMS_P2;Temp;Humidity;BMP_temperature;BMP_pressure;BME280_temperature;BME280_humidity;BME280_pressure;Samples;Min_cycle;Max_cycle;Signal;HPM_P1;HPM_P2
2022/10/16 00:01:53;;;;;;;0.00;0.00;;;13.40;99.90;;;;;;5014125;28;20049;-82
2022/10/16 00:04:20;;;;;;;0.00;0.00;;;13.50;99.90;;;;;;5012624;28;20088;-82
2022/10/16 00:06:47;;;;;;;0.00;0.00;;;13.50;99.90;;;;;;5006893;28;20071;-82
2022/10/16 00:09:15;;;;;;;0.00;0.00;;;13.50;99.90;;;;;;5028159;28;20044;-83
2022/10/16 00:11:42;;;;;;;0.00;0.00;;;13.50;99.90;;;;;;5010678;28;20038;-82
2022/10/16 00:14:12;;;;;;;0.00;0.00;;;13.50;99.90;;;;;;5025895;28;20502;-82
2022/10/16 00:16:39;;;;;;;0.05;0.05;;;13.50;99.90;;;;;;5005560;28;20456;-83
2022/10/16 00:19:06;;;;;;;0.00;0.00;;;13.50;99.90;;;;;;5015751;28;20419;-82
2022/10/16 00:21:34;;;;;;;0.00;0.00;;;13.50;99.90;;;;;;5009486;28;20071;-83
2022/10/16 00:24:04;;;;;;;0.00;0.00;;;13.50;99.90;;;;;;5023205;28;20053;-83
2022/10/16 00:26:33;;;;;;;;;;;13.40;99.90;;;;;;5020534;28;20073;-83
2022/10/16 00:29:00;;;;;;;0.00;0.00;;;13.40;99.90;;;;;;5014149;28;19931;-82
2022/10/16 00:31:27;;;;;;;0.00;0.00;;;13.50;99.90;;;;;;5006415;28;20324;-82
2022/10/16 00:33:54;;;;;;;0.00;0.00;;;13.40;99.90;;;;;;5021674;28;20042;-83
2022/10/16 00:36:23;;;;;;;0.00;0.00;;;13.50;99.90;;;;;;5014312;28;20493;-83
2022/10/16 00:38:52;;;;;;;0.00;0.00;;;13.50;99.90;;;;;;5027811;28;20468;-82
2022/10/16 00:41:21;;;;;;;0.00;0.00;;;13.40;99.90;;;;;;5026026;28;20053;-83
2022/10/16 00:43:51;;;;;;;0.00;0.00;;;13.50;99.90;;;;;;5027071;28;20045;-83
2022/10/16 00:46:18;;;;;;;;;;;13.50;99.90;;;;;;5024840;28;20409;-83
2022/10/16 00:48:51;;;;;;;0.00;0.00;;;13.50;99.90;;;;;;5007748;28;19920;-82
2022/10/16 00:51:23;;;;;;;0.00;0.00;;;13.40;99.90;;;;;;5023865;28;20048;-83
2022/10/16 00:53:50;;;;;;;0.00;0.00;;;13.50;99.90;;;;;;5024433;28;20050;-82
2022/10/16 00:56:18;;;;;;;0.00;0.00;;;13.50;99.90;;;;;;5015394;28;20071;-81
2022/10/16 00:58:45;;;;;;;0.00;0.00;;;13.50;99.90;;;;;;5024066;28;20041;-81
2022/10/16 01:01:13;;;;;;;0.00;0.00;;;13.50;99.90;;;;;;5007252;28;20046;-82
2022/10/16 01:03:40;;;;;;;0.00;0.00;;;13.50;99.90;;;;;;5013515;28;20556;-82
2022/10/16 01:06:31;;;;;;;0.00;0.00;;;13.50;99.90;;;;;;5029111;28;20052;-82
2022/10/16 01:09:09;;;;;;;0.00;0.00;;;13.50;99.90;;;;;;5020961;28;20073;-83
2022/10/16 01:11:43;;;;;;;0.00;0.00;;;13.50;99.90;;;;;;5006349;28;20493;-82
2022/10/16 01:14:17;;;;;;;0.00;0.00;;;13.30;99.90;;;;;;5025409;28;20124;-82
2022/10/16 01:16:51;;;;;;;0.00;0.00;;;13.40;99.90;;;;;;5026294;28;20473;-82
2022/10/16 01:19:31;;;;;;;0.00;0.00;;;13.40;99.90;;;;;;5026494;28;20509;-82
2022/10/16 01:22:00;;;;;;;0.00;0.00;;;13.30;99.90;;;;;;5002685;28;20038;-83
2022/10/16 01:24:37;;;;;;;0.00;0.00;;;13.40;99.90;;;;;;5006255;28;20037;-82
2022/10/16 01:27:10;;;;;;;0.00;0.00;;;13.30;99.90;;;;;;5029380;28;20045;-82
2022/10/16 01:29:44;;;;;;;0.00;0.00;;;13.30;99.90;;;;;;5025305;28;20064;-82
2022/10/16 01:32:18;;;;;;;0.00;0.00;;;13.40;99.90;;;;;;5008494;28;20052;-82
2022/10/16 01:34:50;;;;;;;0.00;0.00;;;13.40;99.90;;;;;;5006410;28;20044;-82
2022/10/16 01:37:28;;;;;;;0.00;0.00;;;13.30;99.90;;;;;;5011679;28;20057;-83
2022/10/16 01:40:00;;;;;;;0.00;0.00;;;13.40;99.90;;;;;;5026120;28;20391;-83
2022/10/16 01:42:31;;;;;;;0.00;0.00;;;13.30;99.90;;;;;;5025597;28;20033;-82
2022/10/16 01:47:47;;;;;;;0.00;0.00;;;13.20;99.90;;;;;;5023572;28;20694;-83
2022/10/16 01:50:16;;;;;;;0.00;0.00;;;13.20;99.90;;;;;;5029253;28;20052;-82
2022/10/16 01:52:47;;;;;;;0.00;0.00;;;13.20;99.90;;;;;;5033320;28;20095;-82
2022/10/16 01:55:18;;;;;;;0.00;0.00;;;13.40;99.90;;;;;;5018559;28;20056;-84
2022/10/16 01:57:49;;;;;;;0.00;0.00;;;13.20;99.90;;;;;;4995999;28;20038;-82
2022/10/16 02:00:19;;;;;;;0.00;0.00;;;13.20;99.90;;;;;;5013778;28;20052;-83
2022/10/16 02:02:52;;;;;;;0.00;0.00;;;13.10;99.90;;;;;;5008647;28;20044;-83
2022/10/16 02:05:24;;;;;;;0.00;0.00;;;13.20;99.90;;;;;;4990968;28;20157;-83
2022/10/16 02:07:51;;;;;;;0.00;0.00;;;13.10;99.90;;;;;;4999871;28;20049;-84
2022/10/16 02:10:19;;;;;;;0.00;0.00;;;13.10;99.90;;;;;;5007639;28;20077;-84
2022/10/16 02:12:51;;;;;;;0.00;0.00;;;13.10;99.90;;;;;;5007064;28;20422;-83
2022/10/16 02:15:19;;;;;;;0.00;0.00;;;13.10;99.90;;;;;;5008630;28;20100;-84
2022/10/16 02:17:45;;;;;;;0.00;0.00;;;13.10;99.90;;;;;;5016539;28;20042;-82
2022/10/16 02:20:13;;;;;;;0.00;0.00;;;13.10;99.90;;;;;;4993430;28;20132;-82
2022/10/16 02:22:44;;;;;;;0.00;0.00;;;13.20;99.90;;;;;;5009413;28;20056;-83
2022/10/16 02:25:14;;;;;;;0.00;0.00;;;13.20;99.90;;;;;;5010585;28;20052;-84
2022/10/16 02:27:51;;;;;;;0.00;0.00;;;13.10;99.90;;;;;;4998977;28;20054;-82
2022/10/16 02:30:24;;;;;;;0.00;0.00;;;13.10;99.90;;;;;;4993510;28;20041;-83
2022/10/16 02:32:52;;;;;;;0.00;0.00;;;13.10;99.90;;;;;;4995639;28;20057;-83
2022/10/16 02:35:21;;;;;;;0.00;0.00;;;13.10;99.90;;;;;;5011541;28;20048;-84
2022/10/16 02:37:50;;;;;;;0.10;0.10;;;13.10;99.90;;;;;;4992455;28;20052;-82
2022/10/16 02:40:17;;;;;;;0.00;0.00;;;13.10;99.90;;;;;;5011497;28;20386;-84
2022/10/16 02:42:51;;;;;;;0.00;0.00;;;13.10;99.90;;;;;;5015600;28;20058;-84
2022/10/16 02:45:20;;;;;;;0.00;0.00;;;13.00;99.90;;;;;;5006970;28;20054;-83
2022/10/16 02:47:47;;;;;;;0.00;0.00;;;;;;;;;;5012990;28;20038;-83
2022/10/16 02:50:14;;;;;;;0.00;0.00;;;12.90;99.90;;;;;;4990569;28;20433;-83
2022/10/16 02:52:41;;;;;;;0.00;0.00;;;12.90;99.90;;;;;;5016992;28;20050;-83
2022/10/16 02:55:08;;;;;;;0.00;0.00;;;12.90;99.90;;;;;;5012072;28;20046;-84
2022/10/16 02:57:36;;;;;;;0.00;0.00;;;13.00;99.90;;;;;;5016877;28;20517;-83
2022/10/16 03:00:04;;;;;;;0.00;0.00;;;12.90;99.90;;;;;;5012634;28;20042;-83
2022/10/16 03:02:33;;;;;;;0.00;0.00;;;12.90;99.90;;;;;;5003648;28;20038;-84
2022/10/16 03:04:59;;;;;;;0.00;0.00;;;12.90;99.90;;;;;;5000931;28;20498;-83
2022/10/16 03:07:26;;;;;;;0.00;0.00;;;12.80;99.90;;;;;;5014642;28;20026;-84
2022/10/16 03:09:55;;;;;;;0.00;0.00;;;12.80;99.90;;;;;;4999926;28;20082;-83
2022/10/16 03:12:22;;;;;;;0.00;0.00;;;;;;;;;;5006708;28;20054;-84
2022/10/16 03:14:49;;;;;;;0.00;0.00;;;12.70;99.90;;;;;;5012785;28;20064;-84
2022/10/16 03:17:16;;;;;;;0.00;0.00;;;12.70;99.90;;;;;;4992761;28;20038;-84
2022/10/16 03:19:45;;;;;;;0.00;0.00;;;12.70;99.90;;;;;;4999951;28;20072;-84
2022/10/16 03:22:11;;;;;;;0.00;0.00;;;12.80;99.90;;;;;;5005045;28;20050;-84
2022/10/16 03:24:38;;;;;;;0.00;0.00;;;12.80;99.90;;;;;;5018440;28;20060;-84
2022/10/16 03:27:06;;;;;;;0.00;0.00;;;;;;;;;;5008770;28;20075;-84
2022/10/16 03:29:33;;;;;;;0.00;0.00;;;12.70;99.90;;;;;;5012704;28;20522;-84
2022/10/16 03:32:00;;;;;;;0.00;0.00;;;12.70;99.90;;;;;;5009941;28;20096;-83
2022/10/16 03:34:27;;;;;;;0.00;0.00;;;12.70;99.90;;;;;;5009870;28;20034;-84
2022/10/16 03:36:55;;;;;;;0.00;0.00;;;12.70;99.90;;;;;;5012748;28;20115;-84
2022/10/16 03:39:23;;;;;;;0.00;0.00;;;;;;;;;;5010234;28;20034;-83
2022/10/16 03:41:50;;;;;;;0.00;0.00;;;;;;;;;;4997808;28;20046;-83
2022/10/16 03:44:17;;;;;;;0.00;0.00;;;12.70;99.90;;;;;;5014812;28;20052;-83
2022/10/16 03:46:43;;;;;;;0.00;0.00;;;12.70;99.90;;;;;;5008332;28;20418;-82
2022/10/16 03:49:10;;;;;;;0.00;0.00;;;12.70;99.90;;;;;;5010032;28;20052;-84
2022/10/16 03:51:37;;;;;;;0.00;0.00;;;12.70;99.90;;;;;;4995110;28;20041;-84
2022/10/16 03:54:05;;;;;;;0.10;0.10;;;12.70;99.90;;;;;;4989182;28;20504;-82
2022/10/16 03:56:32;;;;;;;0.10;0.10;;;12.60;99.90;;;;;;4997566;28;20560;-84
2022/10/16 03:58:59;;;;;;;0.00;0.00;;;12.70;99.90;;;;;;5014375;28;20053;-84
2022/10/16 04:01:26;;;;;;;0.00;0.00;;;12.70;99.90;;;;;;5015819;28;20037;-84
2022/10/16 04:03:53;;;;;;;0.03;0.03;;;12.70;99.90;;;;;;4994041;28;20045;-83
2022/10/16 04:06:20;;;;;;;0.00;0.00;;;12.70;99.90;;;;;;5010726;28;20049;-83
2022/10/16 04:08:46;;;;;;;0.00;0.00;;;12.70;99.90;;;;;;4994655;28;20045;-82
2022/10/16 04:11:14;;;;;;;0.00;0.00;;;12.70;99.90;;;;;;4993758;28;20491;-83
2022/10/16 04:13:42;;;;;;;0.00;0.00;;;;;;;;;;4989782;28;20042;-83
2022/10/16 04:16:09;;;;;;;0.00;0.00;;;;;;;;;;4995554;28;20047;-84
2022/10/16 04:18:36;;;;;;;0.00;0.00;;;12.70;99.90;;;;;;5001708;28;20067;-83
2022/10/16 04:21:03;;;;;;;0.00;0.00;;;12.70;99.90;;;;;;4996288;28;20041;-83
2022/10/16 04:23:30;;;;;;;0.00;0.00;;;12.70;99.90;;;;;;5019237;28;20046;-84
2022/10/16 04:25:57;;;;;;;0.00;0.00;;;12.70;99.90;;;;;;5003407;28;20052;-84
2022/10/16 04:28:26;;;;;;;0.00;0.00;;;12.70;99.90;;;;;;4999082;28;20117;-84
2022/10/16 04:30:53;;;;;;;0.00;0.00;;;12.70;99.90;;;;;;5015477;28;20096;-84
2022/10/16 04:33:20;;;;;;;0.00;0.00;;;;;;;;;;4998444;28;20554;-83
2022/10/16 04:35:48;;;;;;;0.00;0.00;;;;;;;;;;5008852;28;20050;-82
2022/10/16 04:38:14;;;;;;;0.00;0.00;;;12.70;99.90;;;;;;5018116;28;20049;-82
2022/10/16 04:40:41;;;;;;;0.00;0.00;;;12.70;99.90;;;;;;4997467;28;20500;-83
2022/10/16 04:43:08;;;;;;;0.00;0.00;;;12.80;99.90;;;;;;5010882;28;20046;-84
2022/10/16 04:45:37;;;;;;;0.00;0.00;;;12.80;99.90;;;;;;5001169;28;20045;-82
2022/10/16 04:48:04;;;;;;;0.00;0.00;;;12.90;99.90;;;;;;4990095;28;20042;-83
2022/10/16 04:50:30;;;;;;;0.00;0.00;;;12.90;99.90;;;;;;5014505;28;20482;-83
2022/10/16 04:52:57;;;;;;;0.00;0.00;;;;;;;;;;4994589;28;20063;-83
2022/10/16 04:55:24;;;;;;;0.00;0.00;;;12.90;99.90;;;;;;5016577;28;20046;-83
2022/10/16 04:57:51;;;;;;;0.00;0.00;;;13.00;99.90;;;;;;5011326;28;20042;-84
2022/10/16 05:00:18;;;;;;;0.00;0.00;;;13.00;99.90;;;;;;5012742;28;20052;-83
2022/10/16 05:02:46;;;;;;;0.00;0.00;;;13.20;99.90;;;;;;5000903;28;20488;-84
2022/10/16 05:05:14;;;;;;;0.00;0.00;;;13.00;99.90;;;;;;5020028;28;20486;-83
2022/10/16 05:07:41;;;;;;;0.00;0.00;;;;;;;;;;5016843;28;20042;-84
2022/10/16 05:10:08;;;;;;;0.00;0.00;;;13.10;99.90;;;;;;5013906;28;20045;-82
2022/10/16 05:12:35;;;;;;;0.00;0.00;;;13.20;99.90;;;;;;4994716;28;20038;-84
2022/10/16 05:15:02;;;;;;;0.00;0.00;;;13.20;99.90;;;;;;5010031;28;21576;-84
2022/10/16 05:17:29;;;;;;;0.00;0.00;;;13.30;99.90;;;;;;4995412;28;20050;-82
2022/10/16 05:19:57;;;;;;;0.00;0.00;;;13.30;99.90;;;;;;5017090;28;20037;-83
2022/10/16 05:22:24;;;;;;;0.00;0.00;;;13.20;99.90;;;;;;4994227;28;20049;-84
2022/10/16 05:24:51;;;;;;;0.00;0.00;;;13.50;99.90;;;;;;5008930;28;20064;-84
2022/10/16 05:27:20;;;;;;;0.00;0.00;;;13.30;99.90;;;;;;5011198;28;20042;-84
2022/10/16 05:29:48;;;;;;;0.00;0.00;;;13.30;99.90;;;;;;4996032;28;20498;-84
2022/10/16 05:32:16;;;;;;;0.00;0.00;;;13.30;99.90;;;;;;4996276;28;20049;-84
2022/10/16 05:34:43;;;;;;;0.00;0.00;;;13.30;99.90;;;;;;5012058;28;20066;-84
2022/10/16 05:37:12;;;;;;;0.00;0.00;;;13.30;99.90;;;;;;5012543;28;20042;-84
2022/10/16 05:39:40;;;;;;;0.00;0.00;;;;;;;;;;5009025;28;20528;-84
2022/10/16 05:42:07;;;;;;;0.13;0.10;;;13.20;99.90;;;;;;4995314;28;20034;-82
2022/10/16 05:44:34;;;;;;;0.00;0.00;;;13.20;99.90;;;;;;5012151;28;20462;-84
2022/10/16 05:47:01;;;;;;;0.00;0.00;;;;;;;;;;4992088;28;20052;-82
2022/10/16 05:49:28;;;;;;;0.00;0.00;;;13.20;99.90;;;;;;5007638;28;20053;-84
2022/10/16 05:51:54;;;;;;;0.00;0.00;;;13.30;99.90;;;;;;5009804;28;20053;-83
2022/10/16 05:54:23;;;;;;;0.05;0.05;;;13.20;99.90;;;;;;5008830;28;20075;-82
2022/10/16 05:56:50;;;;;;;0.00;0.00;;;;;;;;;;4995325;28;20050;-85
2022/10/16 05:59:17;;;;;;;0.00;0.00;;;13.30;99.90;;;;;;4993958;28;20344;-83
2022/10/16 06:01:43;;;;;;;0.00;0.00;;;13.30;99.90;;;;;;5013470;28;20069;-83
2022/10/16 06:04:10;;;;;;;0.00;0.00;;;13.30;99.90;;;;;;4994856;28;20044;-85
2022/10/16 06:06:42;;;;;;;0.00;0.00;;;13.30;99.90;;;;;;4999814;28;20117;-83
2022/10/16 06:09:09;;;;;;;0.00;0.00;;;13.40;99.90;;;;;;4990946;28;20042;-84
2022/10/16 06:11:37;;;;;;;0.00;0.00;;;13.40;99.90;;;;;;5012361;28;20115;-82
2022/10/16 06:14:06;;;;;;;0.00;0.00;;;13.40;99.90;;;;;;4991625;28;20494;-82
2022/10/16 06:16:34;;;;;;;0.00;0.00;;;13.50;99.90;;;;;;5012853;28;20053;-83
2022/10/16 06:19:02;;;;;;;0.00;0.00;;;13.40;99.90;;;;;;4996995;28;20498;-83
2022/10/16 06:21:29;;;;;;;0.00;0.00;;;13.40;99.90;;;;;;5000676;28;20041;-83
2022/10/16 06:23:56;;;;;;;0.00;0.00;;;14.30;99.90;;;;;;5011357;28;20036;-84
2022/10/16 06:26:26;;;;;;;0.00;0.00;;;13.50;99.90;;;;;;5005665;28;20511;-84
2022/10/16 06:28:55;;;;;;;0.00;0.00;;;13.40;99.90;;;;;;4992040;28;20038;-83
2022/10/16 06:31:27;;;;;;;0.00;0.00;;;13.40;99.90;;;;;;4991573;28;20042;-84
2022/10/16 06:33:54;;;;;;;0.00;0.00;;;13.40;99.90;;;;;;5005928;28;20075;-83
2022/10/16 06:36:21;;;;;;;0.00;0.00;;;;;;;;;;5006327;28;20434;-84
2022/10/16 06:38:48;;;;;;;0.00;0.00;;;13.60;99.90;;;;;;5023758;28;20037;-83
2022/10/16 06:41:17;;;;;;;0.00;0.00;;;13.60;99.90;;;;;;4998179;28;20042;-83
2022/10/16 06:43:47;;;;;;;0.00;0.00;;;13.70;99.90;;;;;;5009278;28;20117;-82
2022/10/16 06:46:16;;;;;;;;;;;13.70;99.90;;;;;;5002508;28;20046;-83
2022/10/16 06:48:43;;;;;;;0.00;0.00;;;13.70;99.90;;;;;;4996186;28;19927;-84
2022/10/16 06:51:11;;;;;;;0.00;0.00;;;13.70;99.90;;;;;;5018419;28;20296;-83
2022/10/16 06:53:40;;;;;;;0.00;0.00;;;13.70;99.90;;;;;;4995188;28;20069;-83
2022/10/16 06:56:30;;;;;;;0.00;0.00;;;13.70;99.90;;;;;;4995317;28;20120;-84
2022/10/16 06:58:58;;;;;;;0.00;0.00;;;13.70;99.90;;;;;;5020760;28;20045;-82
2022/10/16 07:01:26;;;;;;;0.00;0.00;;;14.00;99.90;;;;;;4992779;28;20513;-83
2022/10/16 07:03:53;;;;;;;0.00;0.00;;;13.80;99.90;;;;;;5008481;28;20470;-84
2022/10/16 07:06:22;;;;;;;0.00;0.00;;;13.70;99.90;;;;;;5009725;28;20046;-83
2022/10/16 07:08:49;;;;;;;0.00;0.00;;;13.70;99.90;;;;;;4992968;28;20073;-83
2022/10/16 07:11:18;;;;;;;0.00;0.00;;;13.90;99.90;;;;;;5003590;28;20106;-84
2022/10/16 07:13:46;;;;;;;0.00;0.00;;;13.80;99.90;;;;;;5010746;28;20042;-84
2022/10/16 07:16:22;;;;;;;0.00;0.00;;;13.90;99.90;;;;;;5012191;28;20045;-83
2022/10/16 07:18:51;;;;;;;0.00;0.00;;;13.90;99.90;;;;;;5010369;28;20541;-82
2022/10/16 07:21:22;;;;;;;0.00;0.00;;;14.40;99.90;;;;;;5010645;28;20391;-83
2022/10/16 07:23:50;;;;;;;0.00;0.00;;;14.30;99.90;;;;;;5011211;28;20054;-83
2022/10/16 07:26:18;;;;;;;0.00;0.00;;;14.10;99.90;;;;;;5004992;28;20100;-84
2022/10/16 07:28:45;;;;;;;0.00;0.00;;;14.10;99.90;;;;;;5008252;28;20046;-83
2022/10/16 07:31:14;;;;;;;0.00;0.00;;;14.20;99.90;;;;;;5007409;28;20494;-83
2022/10/16 07:33:44;;;;;;;0.00;0.00;;;14.40;99.90;;;;;;5001706;28;20425;-86
2022/10/16 07:36:12;;;;;;;0.00;0.00;;;14.40;99.90;;;;;;5014207;28;20045;-83
2022/10/16 07:38:43;;;;;;;0.00;0.00;;;14.40;99.90;;;;;;5013151;28;20054;-82
2022/10/16 07:41:12;;;;;;;0.00;0.00;;;14.60;99.90;;;;;;5012466;28;20051;-84
2022/10/16 07:43:40;;;;;;;0.00;0.00;;;14.60;99.90;;;;;;5007020;28;20043;-84
2022/10/16 07:46:07;;;;;;;0.00;0.00;;;14.60;99.90;;;;;;4993218;28;20052;-84
2022/10/16 07:48:34;;;;;;;0.00;0.00;;;14.70;99.90;;;;;;5006921;28;20046;-83
2022/10/16 07:51:03;;;;;;;0.00;0.00;;;14.80;99.90;;;;;;4994310;28;20049;-83
2022/10/16 07:53:32;;;;;;;0.00;0.00;;;14.70;99.90;;;;;;4993571;28;20044;-83
2022/10/16 07:56:00;;;;;;;0.00;0.00;;;14.70;99.90;;;;;;4991348;28;20037;-84
2022/10/16 07:58:27;;;;;;;0.00;0.00;;;14.70;99.90;;;;;;4989686;28;20053;-83
2022/10/16 08:00:54;;;;;;;0.00;0.00;;;14.60;99.90;;;;;;5003493;28;20045;-83
2022/10/16 08:03:21;;;;;;;0.00;0.00;;;14.60;99.90;;;;;;4987014;28;20072;-82
2022/10/16 08:05:50;;;;;;;0.00;0.00;;;14.60;99.90;;;;;;5008207;28;20050;-82
2022/10/16 08:08:17;;;;;;;0.00;0.00;;;14.50;99.90;;;;;;5016373;28;20048;-83
2022/10/16 08:10:46;;;;;;;0.00;0.00;;;14.50;99.90;;;;;;4995826;28;20052;-84
2022/10/16 08:13:14;;;;;;;0.00;0.00;;;;;;;;;;4995755;28;20026;-83
2022/10/16 08:15:42;;;;;;;0.00;0.00;;;14.60;99.90;;;;;;5006735;28;20565;-83
2022/10/16 08:18:10;;;;;;;0.00;0.00;;;14.60;99.90;;;;;;4991546;28;20045;-84
2022/10/16 08:20:38;;;;;;;0.00;0.00;;;15.00;99.90;;;;;;4994150;28;20045;-83
2022/10/16 08:23:05;;;;;;;0.00;0.00;;;14.60;99.90;;;;;;5011532;28;20052;-83
2022/10/16 08:25:33;;;;;;;0.00;0.00;;;14.60;99.90;;;;;;5011002;28;20052;-84
2022/10/16 08:28:04;;;;;;;0.00;0.00;;;14.90;99.90;;;;;;5006355;28;20931;-84
2022/10/16 08:30:31;;;;;;;0.00;0.00;;;14.70;99.90;;;;;;5006661;28;20540;-82
2022/10/16 08:32:58;;;;;;;0.00;0.00;;;14.70;99.90;;;;;;4999035;28;20041;-84
2022/10/16 08:35:25;;;;;;;0.00;0.00;;;14.70;99.90;;;;;;4990854;28;20077;-83
2022/10/16 08:37:52;;;;;;;0.00;0.00;;;14.70;99.90;;;;;;4991358;28;20046;-83
2022/10/16 08:40:23;;;;;;;0.00;0.00;;;14.70;99.90;;;;;;5009777;28;20041;-83
2022/10/16 08:43:19;;;;;;;0.00;0.00;;;14.80;99.90;;;;;;5011727;28;20034;-83
2022/10/16 08:46:15;;;;;;;0.00;0.00;;;14.60;99.90;;;;;;5010498;28;20045;-83
2022/10/16 08:48:46;;;;;;;0.00;0.00;;;14.90;99.90;;;;;;4996316;28;20030;-83
2022/10/16 08:51:20;;;;;;;0.00;0.00;;;14.90;99.90;;;;;;5013622;28;20410;-82
2022/10/16 08:53:51;;;;;;;0.00;0.00;;;15.00;99.90;;;;;;5000822;28;20042;-84
2022/10/16 08:56:18;;;;;;;0.00;0.00;;;15.00;99.90;;;;;;4990028;28;20405;-82
2022/10/16 08:58:46;;;;;;;0.00;0.00;;;15.10;99.90;;;;;;5008299;28;20038;-84
2022/10/16 09:01:22;;;;;;;0.00;0.00;;;15.00;99.90;;;;;;5010051;28;20049;-82
2022/10/16 09:04:13;;;;;;;0.00;0.00;;;16.30;99.90;;;;;;5006518;28;20541;-83
2022/10/16 09:06:45;;;;;;;0.00;0.00;;;15.10;99.90;;;;;;5004012;28;20033;-84
2022/10/16 09:09:41;;;;;;;0.00;0.00;;;15.10;99.90;;;;;;4991941;28;20412;-83
2022/10/16 09:12:13;;;;;;;0.00;0.00;;;15.10;99.90;;;;;;5013368;28;20041;-83
2022/10/16 09:14:58;;;;;;;0.00;0.00;;;15.20;99.90;;;;;;4998201;28;20463;-85
2022/10/16 09:17:37;;;;;;;0.00;0.00;;;15.10;99.90;;;;;;4992336;28;20427;-83
2022/10/16 09:20:17;;;;;;;0.00;0.00;;;15.20;99.90;;;;;;5010490;28;20526;-84
2022/10/16 09:22:44;;;;;;;0.00;0.00;;;15.30;99.90;;;;;;5013308;28;20048;-84
2022/10/16 09:25:14;;;;;;;0.00;0.00;;;15.40;99.90;;;;;;5011729;28;20041;-84
2022/10/16 09:27:44;;;;;;;0.00;0.00;;;15.30;99.90;;;;;;5018974;28;20048;-84
2022/10/16 09:30:13;;;;;;;0.00;0.00;;;15.40;99.90;;;;;;5009985;28;20042;-83
2022/10/16 09:32:43;;;;;;;0.00;0.00;;;15.40;99.90;;;;;;5014314;28;20509;-83
2022/10/16 09:35:15;;;;;;;0.00;0.00;;;15.50;99.90;;;;;;4994077;28;20042;-82
2022/10/16 09:37:44;;;;;;;0.00;0.00;;;15.50;99.90;;;;;;5009542;28;20042;-84
2022/10/16 09:40:13;;;;;;;0.00;0.00;;;15.90;99.90;;;;;;5016277;28;20045;-84
2022/10/16 09:42:40;;;;;;;0.00;0.00;;;15.90;99.90;;;;;;4997003;28;20042;-84
2022/10/16 09:45:21;;;;;;;0.00;0.00;;;15.90;99.90;;;;;;5001571;28;20107;-82
2022/10/16 09:47:49;;;;;;;0.00;0.00;;;16.00;99.90;;;;;;4998460;28;20043;-83
2022/10/16 09:50:26;;;;;;;0.00;0.00;;;17.40;99.90;;;;;;4997246;28;20486;-84
2022/10/16 09:53:09;;;;;;;0.00;0.00;;;16.30;99.90;;;;;;5010980;28;20038;-83
2022/10/16 09:55:35;;;;;;;0.00;0.00;;;16.30;99.90;;;;;;5006320;28;20045;-83
2022/10/16 09:58:02;;;;;;;0.00;0.00;;;16.30;99.90;;;;;;5008548;28;20519;-84
2022/10/16 10:00:29;;;;;;;0.00;0.00;;;16.30;99.90;;;;;;5012037;28;20064;-84
2022/10/16 10:02:58;;;;;;;0.00;0.00;;;16.30;99.90;;;;;;5011563;28;20038;-83
2022/10/16 10:05:27;;;;;;;0.00;0.00;;;16.30;99.90;;;;;;4991873;28;20041;-83
2022/10/16 10:07:56;;;;;;;0.00;0.00;;;16.30;99.90;;;;;;5018148;28;20052;-83
2022/10/16 10:10:25;;;;;;;0.00;0.00;;;16.40;99.90;;;;;;4992278;28;20050;-84
2022/10/16 10:12:53;;;;;;;0.00;0.00;;;16.40;99.90;;;;;;4992021;28;20042;-82
2022/10/16 10:15:24;;;;;;;0.00;0.00;;;16.50;99.90;;;;;;4998443;28;20049;-83
2022/10/16 10:17:53;;;;;;;0.00;0.00;;;16.40;99.90;;;;;;4989950;28;20034;-82
2022/10/16 10:20:27;;;;;;;0.00;0.00;;;16.40;99.90;;;;;;4998102;28;20040;-83
2022/10/16 10:22:55;;;;;;;0.00;0.00;;;16.40;99.90;;;;;;4996078;28;20042;-82
2022/10/16 10:25:38;;;;;;;0.00;0.00;;;17.00;99.90;;;;;;4988927;28;20058;-84
2022/10/16 10:28:35;;;;;;;0.00;0.00;;;16.50;99.90;;;;;;4996624;28;20045;-83
2022/10/16 10:31:09;;;;;;;0.00;0.00;;;16.60;99.90;;;;;;4989609;28;20116;-82
2022/10/16 10:33:43;;;;;;;0.00;0.00;;;16.70;99.90;;;;;;5016198;28;20073;-82
2022/10/16 10:36:27;;;;;;;0.00;0.00;;;16.80;99.90;;;;;;5016508;28;20052;-83
2022/10/16 10:38:58;;;;;;;0.00;0.00;;;16.80;99.90;;;;;;4998112;28;20049;-82
2022/10/16 10:41:57;;;;;;;0.00;0.00;;;16.90;99.90;;;;;;4983574;28;20046;-83
2022/10/16 10:44:37;;;;;;;0.00;0.00;;;17.10;99.90;;;;;;5012771;28;20073;-83
2022/10/16 10:47:13;;;;;;;0.00;0.00;;;17.30;99.90;;;;;;5009088;28;20044;-84
2022/10/16 10:49:53;;;;;;;0.00;0.00;;;17.40;99.90;;;;;;5006737;28;20046;-82
2022/10/16 10:52:38;;;;;;;0.00;0.00;;;17.50;99.90;;;;;;5004903;28;20049;-85
2022/10/16 10:55:18;;;;;;;0.00;0.00;;;17.60;99.90;;;;;;4998854;28;20144;-83
2022/10/16 10:57:59;;;;;;;0.00;0.00;;;17.60;99.90;;;;;;5011236;28;20126;-83
2022/10/16 11:00:42;;;;;;;0.00;0.00;;;17.60;99.90;;;;;;4993676;28;20050;-84
2022/10/16 11:03:27;;;;;;;0.03;0.03;;;17.60;99.90;;;;;;4992506;28;20512;-83
2022/10/16 11:05:58;;;;;;;0.00;0.00;;;17.40;99.90;;;;;;4993476;28;20065;-82
2022/10/16 11:08:32;;;;;;;0.00;0.00;;;17.40;99.90;;;;;;4991824;28;20046;-83
2022/10/16 11:11:03;;;;;;;0.00;0.00;;;17.40;99.90;;;;;;4989459;28;20042;-85
2022/10/16 11:13:36;;;;;;;0.00;0.00;;;17.90;99.90;;;;;;5011660;28;20125;-84
2022/10/16 11:16:13;;;;;;;0.00;0.00;;;17.60;99.90;;;;;;4991778;28;20113;-85
2022/10/16 11:18:49;;;;;;;0.00;0.00;;;17.60;99.90;;;;;;4993709;28;20044;-86
2022/10/16 11:21:19;;;;;;;0.00;0.00;;;17.60;99.90;;;;;;5009217;28;20096;-83
2022/10/16 11:23:51;;;;;;;;;;;17.60;99.90;;;;;;5009105;28;20423;-83
2022/10/16 11:26:21;;;;;;;0.00;0.00;;;17.70;99.90;;;;;;5002755;28;20404;-84
2022/10/16 11:28:50;;;;;;;0.00;0.00;;;17.70;99.90;;;;;;4995604;28;20526;-84
2022/10/16 11:31:24;;;;;;;0.00;0.00;;;17.80;99.90;;;;;;4999020;28;20108;-84
2022/10/16 11:33:59;;;;;;;0.00;0.00;;;17.90;99.90;;;;;;4997919;28;20042;-83
2022/10/16 11:36:34;;;;;;;0.00;0.00;;;18.00;99.90;;;;;;4996970;28;20130;-85
2022/10/16 11:39:08;;;;;;;0.00;0.00;;;18.20;99.90;;;;;;4990687;28;20056;-83
2022/10/16 11:41:42;;;;;;;0.00;0.00;;;18.40;99.90;;;;;;4995462;28;20034;-83
2022/10/16 11:44:21;;;;;;;0.00;0.00;;;18.40;99.90;;;;;;5002170;28;20036;-85
2022/10/16 11:46:52;;;;;;;0.00;0.00;;;19.70;99.90;;;;;;5000132;28;20053;-82
2022/10/16 11:49:41;;;;;;;0.00;0.00;;;18.40;99.90;;;;;;5013610;28;21435;-85
2022/10/16 11:52:15;;;;;;;0.00;0.00;;;18.20;99.90;;;;;;5006441;28;20520;-86
2022/10/16 11:54:48;;;;;;;0.00;0.00;;;18.20;99.90;;;;;;4997433;28;20486;-85
2022/10/16 11:57:19;;;;;;;0.00;0.00;;;18.10;99.90;;;;;;4996805;28;20038;-85
2022/10/16 11:59:51;;;;;;;0.00;0.00;;;18.20;99.90;;;;;;4988888;28;20332;-86
2022/10/16 12:02:46;;;;;;;0.00;0.00;;;18.10;99.90;;;;;;5010217;28;20029;-85
2022/10/16 12:05:22;;;;;;;0.00;0.00;;;17.90;99.90;;;;;;5013549;28;20054;-84
2022/10/16 12:08:06;;;;;;;0.00;0.00;;;17.90;99.90;;;;;;5014056;28;20041;-85
2022/10/16 12:10:37;;;;;;;0.00;0.00;;;17.90;99.90;;;;;;4993697;28;20763;-83
2022/10/16 12:13:20;;;;;;;0.00;0.00;;;17.80;99.90;;;;;;5007375;28;20046;-83
2022/10/16 12:15:47;;;;;;;0.00;0.00;;;17.80;99.90;;;;;;5010737;28;20050;-84
2022/10/16 12:18:25;;;;;;;0.00;0.00;;;17.90;99.90;;;;;;4995818;28;20030;-84
2022/10/16 12:20:58;;;;;;;0.00;0.00;;;17.90;99.90;;;;;;4997767;28;20112;-84
2022/10/16 12:23:26;;;;;;;0.00;0.00;;;18.00;99.90;;;;;;5000307;28;20399;-84
2022/10/16 12:25:57;;;;;;;0.00;0.00;;;18.00;99.90;;;;;;5005582;28;20060;-84
2022/10/16 12:28:30;;;;;;;0.00;0.00;;;18.00;99.90;;;;;;4996035;28;20048;-83
2022/10/16 12:31:00;;;;;;;0.00;0.00;;;18.00;99.90;;;;;;5011452;28;20409;-83
2022/10/16 12:33:29;;;;;;;;;;;18.00;99.90;;;;;;5012606;28;20038;-85
2022/10/16 12:35:58;;;;;;;0.00;0.00;;;20.10;99.90;;;;;;5018822;28;20307;-84
2022/10/16 12:38:27;;;;;;;0.00;0.00;;;18.20;99.90;;;;;;4986886;28;20048;-84
2022/10/16 12:40:57;;;;;;;;;;;18.10;99.90;;;;;;4999710;28;20520;-83
2022/10/16 12:43:37;;;;;;;0.00;0.00;;;18.20;99.90;;;;;;5011833;28;19921;-85
2022/10/16 12:46:21;;;;;;;0.00;0.00;;;18.20;99.90;;;;;;5002077;28;20053;-85
2022/10/16 12:48:53;;;;;;;0.00;0.00;;;18.20;99.90;;;;;;5007953;28;20038;-84
2022/10/16 12:51:35;;;;;;;0.00;0.00;;;18.30;99.90;;;;;;4997463;28;20065;-84
2022/10/16 12:54:04;;;;;;;0.00;0.00;;;18.30;99.90;;;;;;5010878;28;20064;-86
2022/10/16 12:56:41;;;;;;;0.00;0.00;;;18.30;99.90;;;;;;4989031;28;20502;-84
2022/10/16 12:59:21;;;;;;;0.00;0.00;;;18.30;99.90;;;;;;5010697;28;21313;-85
2022/10/16 13:02:02;;;;;;;0.00;0.00;;;18.40;99.90;;;;;;5006199;28;20045;-84
2022/10/16 13:04:53;;;;;;;0.00;0.00;;;18.30;99.90;;;;;;5001662;28;20733;-84
2022/10/16 13:07:38;;;;;;;0.00;0.00;;;18.50;99.90;;;;;;4988097;28;20060;-84
2022/10/16 13:10:14;;;;;;;0.00;0.00;;;18.50;99.90;;;;;;4987076;28;20481;-85
2022/10/16 13:13:06;;;;;;;0.00;0.00;;;18.60;99.90;;;;;;5005756;28;20046;-84
2022/10/16 13:15:51;;;;;;;0.00;0.00;;;18.70;99.90;;;;;;5002497;28;20038;-83